Terminal Aerodrome Forecast
Issued by NWS St Louis, MO

Home | Current Version | Previous Version | Text Only | Print | Product List | Glossary On
Versions: 1 2 3 4 5 6 7 8 9 10 11 12 13 14 15 16 17 18 19 20 21 22
000
FTUS43 KLSX 200858 AAA
TAFSTL
TAF AMD
KSTL 200858Z 2009/2112 17007KT P6SM SCT200 WS012/22040KT
     FM201200 20007KT P6SM BKN130
     FM202100 28007KT P6SM BKN100
     FM210100 36005KT P6SM SCT050
     FM210500 04005KT P6SM BKN045=

USA.gov is the U.S. government's official web portal to all federal, state and local government web resources and services.